Berta — V2BQ6 — position and weather

sailwx.info

Track history (hours):
 
Tides and Currents Weather Stations Pressure Air Temp Water Temp Dewpoint Dewpoint Depression Visibility Wind Speed Wind Dir Waves Ship Positions

Berta

Last reported at 2017-Jan-17 11:33 UTC. Time now 2017-Jan-17 13:06 UTC.
Position N 57°39' E 006°17'.

Length 118 m; draft 7.5 m.

Type: Cargo ship. MMSI: 304586000.

Date/timePositionNaut miles runAvg speedWind from/ knotsBaromVisibWave heightAir tempDewpointWater temp
2017-Jan-17 11:33N 57°39' E 006°17'1211.6
2017-Jan-17 10:31N 57°50' E 006°12'1111.7
2017-Jan-17 09:33N 58°01' E 006°08'1212.0
2017-Jan-17 08:32N 58°13' E 006°03'1212.1
2017-Jan-17 07:33N 58°25' E 005°60'2 1.7
2017-Jan-17 06:33N 58°26' E 005°59'0 0.0
2017-Jan-17 05:33N 58°26' E 005°59'0 0.0
2017-Jan-17 04:33N 58°26' E 005°59'2 2.2
2017-Jan-17 03:33N 58°24' E 005°60'8 7.6
2017-Jan-17 02:33N 58°25' E 005°45'1110.8
2017-Jan-17 01:33N 58°32' E 005°30'1111.4
2017-Jan-17 00:33N 58°42' E 005°18'1211.6
2017-Jan-16 23:33N 58°52' E 005°07'1211.7
2017-Jan-16 22:33N 59°02' E 004°56'250 5.9
2017-Jan-15 04:29N 63°06' E 006°55'1011.2
2017-Jan-15 03:33N 63°11' E 007°14'1110.6
2017-Jan-15 02:33N 63°15' E 007°36'1110.9
2017-Jan-15 01:33N 63°15' E 008°01'1212.2
2017-Jan-15 00:33N 63°22' E 008°23'1812.5
2017-Jan-14 23:08N 63°29' E 008°60'712.0
2017-Jan-14 22:33N 63°24' E 009°10'2 0.3
2017-Jan-14 15:33N 63°21' E 009°11'2211.2
2017-Jan-14 13:33N 63°21' E 008°22'1514.7
2017-Jan-14 12:33N 63°13' E 007°54'1414.1
2017-Jan-14 11:34N 63°13' E 007°23'1414.2
2017-Jan-14 10:34N 63°06' E 006°57'1514.1
2017-Jan-14 09:29N 62°57' E 006°30'184 8.4
2017-Jan-13 11:30N 59°55' E 005°30'1110.9
2017-Jan-13 10:30N 59°44' E 005°30'1412.2
2017-Jan-13 09:23N 59°33' E 005°14'14 1.1
2017-Jan-12 20:24N 59°20' E 005°18'7 7.8
2017-Jan-12 19:32N 59°13' E 005°21'9 8.9
2017-Jan-12 18:34N 59°06' E 005°31'1111.0
2017-Jan-12 17:34N 58°55' E 005°33'1110.6
2017-Jan-12 16:34N 58°47' E 005°19'10 9.6
2017-Jan-12 15:34N 58°40' E 005°07'8 7.9
2017-Jan-12 14:34N 58°33' E 005°12'6 6.0
2017-Jan-12 13:34N 58°28' E 005°18'6 6.0
2017-Jan-12 12:33N 58°22' E 005°23'5 5.3
2017-Jan-12 11:33N 58°18' E 005°28'174 5.8
2017-Jan-11 05:33N 55°30' E 006°52'1312.8
2017-Jan-11 04:33N 55°17' E 006°59'1313.4
2017-Jan-11 03:33N 55°04' E 007°02'1313.3
2017-Jan-11 02:33N 54°51' E 007°08'1413.5
2017-Jan-11 01:32N 54°38' E 007°14'4013.4
2017-Jan-10 22:33N 54°01' E 007°41'1110.9
2017-Jan-10 21:33N 53°53' E 007°52'1211.9
2017-Jan-10 20:33N 53°47' E 008°10'1111.1
2017-Jan-10 19:33N 53°40' E 008°24'7 6.6
2017-Jan-10 18:33N 53°35' E 008°32'0 0.0
2017-Jan-10 17:33N 53°35' E 008°32'0 0.0
2017-Jan-10 16:33N 53°35' E 008°32'3 2.9
2017-Jan-10 15:33N 53°37' E 008°28'1010.4
2017-Jan-10 14:33N 53°44' E 008°15'1110.8
2017-Jan-10 13:34N 53°51' E 008°01'6 6.0
2017-Jan-10 12:34N 53°55' E 007°54'1312.7
2017-Jan-10 11:33N 54°00' E 008°13'1413.9
2017-Jan-10 10:33N 53°58' E 008°37'1110.8
2017-Jan-10 09:33N 53°50' E 008°50'1010.2
2017-Jan-10 08:33N 53°53' E 009°07'10 9.8
2017-Jan-10 07:34N 53°49' E 009°22'1212.3
2017-Jan-10 06:33N 53°38' E 009°32'1212.1
2017-Jan-10 05:33N 53°33' E 009°51'3 2.7
2017-Jan-10 04:33N 53°32' E 009°55'0 0.0
2017-Jan-10 03:33N 53°32' E 009°55'0 0.0
2017-Jan-10 02:33N 53°32' E 009°55'0 0.0
2017-Jan-10 01:33N 53°32' E 009°55'0 0.0
2017-Jan-10 00:33N 53°32' E 009°55'0 0.0
2017-Jan-09 23:33N 53°32' E 009°55'0 0.0
2017-Jan-09 22:33N 53°32' E 009°55'1 1.4
2017-Jan-09 21:33N 53°31' E 009°56'1 1.0
2017-Jan-09 20:33N 53°30' E 009°56'0 0.0
2017-Jan-09 19:33N 53°30' E 009°56'0 0.0
2017-Jan-09 18:33N 53°30' E 009°56'0 0.0
2017-Jan-09 17:33N 53°30' E 009°56'0 0.0
2017-Jan-09 16:33N 53°30' E 009°56'0 0.0
2017-Jan-09 15:33N 53°30' E 009°56'0 0.0
2017-Jan-09 14:33N 53°30' E 009°56'0 0.0
2017-Jan-09 13:33N 53°30' E 009°56'0 0.0
2017-Jan-09 12:33N 53°30' E 009°56'0 0.0
2017-Jan-09 11:34N 53°30' E 009°56'5 5.0
2017-Jan-09 10:33N 53°33' E 009°49'1110.8
2017-Jan-09 09:33N 53°37' E 009°32'1110.8
2017-Jan-09 08:33N 53°47' E 009°23'1212.1
2017-Jan-09 07:33N 53°52' E 009°05'1313.1
2017-Jan-09 06:33N 53°52' E 008°43'1413.5
2017-Jan-09 05:33N 53°59' E 008°23'1111.1
2017-Jan-09 04:33N 54°02' E 008°05'3 2.7
2017-Jan-09 03:30N 54°03' E 008°10'0 0.2
2017-Jan-09 02:33N 54°03' E 008°09'8 8.1
2017-Jan-09 01:33N 54°03' E 007°56'1010.1
2017-Jan-09 00:32N 54°08' E 007°40'29 9.4
2017-Jan-08 21:27N 54°32' E 007°14'9 9.7
2017-Jan-08 20:33N 54°40' E 007°07'10 9.9
2017-Jan-08 19:33N 54°49' E 006°60'1010.3
2017-Jan-08 18:33N 54°58' E 006°52'1110.6
2017-Jan-08 17:33N 55°08' E 006°46'1110.9
2017-Jan-08 16:34N 55°19' E 006°41'1110.9
2017-Jan-08 15:34N 55°29' E 006°36'16812.0
2017-Jan-08 01:33N 58°12' E 005°18'1412.1
2017-Jan-08 00:26N 58°23' E 005°02'1112.4
2017-Jan-07 23:31N 58°32' E 004°49'1212.8
2017-Jan-07 22:33N 58°41' E 004°34'  
Track history (hours):
 
Tides and Currents Weather Stations Pressure Air Temp Water Temp Dewpoint Dewpoint Depression Visibility Wind Speed Wind Dir Waves Ship Positions

Berta

Last reported at 2017-Jan-17 11:33 UTC. Time now 2017-Jan-17 13:06 UTC.
Position N 57°39' E 006°17'.

Length 118 m; draft 7.5 m.

Type: Cargo ship. MMSI: 304586000.

Date/timePositionNaut miles runAvg speedWind from/ knotsBaromVisibWave heightAir tempDewpointWater temp
2017-Jan-17 11:33N 57°39' E 006°17'1211.6
2017-Jan-17 10:31N 57°50' E 006°12'1111.7
2017-Jan-17 09:33N 58°01' E 006°08'1212.0
2017-Jan-17 08:32N 58°13' E 006°03'1212.1
2017-Jan-17 07:33N 58°25' E 005°60'2 1.7
2017-Jan-17 06:33N 58°26' E 005°59'0 0.0
2017-Jan-17 05:33N 58°26' E 005°59'0 0.0
2017-Jan-17 04:33N 58°26' E 005°59'2 2.2
2017-Jan-17 03:33N 58°24' E 005°60'8 7.6
2017-Jan-17 02:33N 58°25' E 005°45'1110.8
2017-Jan-17 01:33N 58°32' E 005°30'1111.4
2017-Jan-17 00:33N 58°42' E 005°18'1211.6
2017-Jan-16 23:33N 58°52' E 005°07'1211.7
2017-Jan-16 22:33N 59°02' E 004°56'250 5.9
2017-Jan-15 04:29N 63°06' E 006°55'1011.2
2017-Jan-15 03:33N 63°11' E 007°14'1110.6
2017-Jan-15 02:33N 63°15' E 007°36'1110.9
2017-Jan-15 01:33N 63°15' E 008°01'1212.2
2017-Jan-15 00:33N 63°22' E 008°23'1812.5
2017-Jan-14 23:08N 63°29' E 008°60'712.0
2017-Jan-14 22:33N 63°24' E 009°10'2 0.3
2017-Jan-14 15:33N 63°21' E 009°11'2211.2
2017-Jan-14 13:33N 63°21' E 008°22'1514.7
2017-Jan-14 12:33N 63°13' E 007°54'1414.1
2017-Jan-14 11:34N 63°13' E 007°23'1414.2
2017-Jan-14 10:34N 63°06' E 006°57'1514.1
2017-Jan-14 09:29N 62°57' E 006°30'184 8.4
2017-Jan-13 11:30N 59°55' E 005°30'1110.9
2017-Jan-13 10:30N 59°44' E 005°30'1412.2
2017-Jan-13 09:23N 59°33' E 005°14'14 1.1
2017-Jan-12 20:24N 59°20' E 005°18'7 7.8
2017-Jan-12 19:32N 59°13' E 005°21'9 8.9
2017-Jan-12 18:34N 59°06' E 005°31'1111.0
2017-Jan-12 17:34N 58°55' E 005°33'1110.6
2017-Jan-12 16:34N 58°47' E 005°19'10 9.6
2017-Jan-12 15:34N 58°40' E 005°07'8 7.9
2017-Jan-12 14:34N 58°33' E 005°12'6 6.0
2017-Jan-12 13:34N 58°28' E 005°18'6 6.0
2017-Jan-12 12:33N 58°22' E 005°23'5 5.3
2017-Jan-12 11:33N 58°18' E 005°28'174 5.8
2017-Jan-11 05:33N 55°30' E 006°52'1312.8
2017-Jan-11 04:33N 55°17' E 006°59'1313.4
2017-Jan-11 03:33N 55°04' E 007°02'1313.3
2017-Jan-11 02:33N 54°51' E 007°08'1413.5
2017-Jan-11 01:32N 54°38' E 007°14'4013.4
2017-Jan-10 22:33N 54°01' E 007°41'1110.9
2017-Jan-10 21:33N 53°53' E 007°52'1211.9
2017-Jan-10 20:33N 53°47' E 008°10'1111.1
2017-Jan-10 19:33N 53°40' E 008°24'7 6.6
2017-Jan-10 18:33N 53°35' E 008°32'0 0.0
2017-Jan-10 17:33N 53°35' E 008°32'0 0.0
2017-Jan-10 16:33N 53°35' E 008°32'3 2.9
2017-Jan-10 15:33N 53°37' E 008°28'1010.4
2017-Jan-10 14:33N 53°44' E 008°15'1110.8
2017-Jan-10 13:34N 53°51' E 008°01'6 6.0
2017-Jan-10 12:34N 53°55' E 007°54'1312.7
2017-Jan-10 11:33N 54°00' E 008°13'1413.9
2017-Jan-10 10:33N 53°58' E 008°37'1110.8
2017-Jan-10 09:33N 53°50' E 008°50'1010.2
2017-Jan-10 08:33N 53°53' E 009°07'10 9.8
2017-Jan-10 07:34N 53°49' E 009°22'1212.3
2017-Jan-10 06:33N 53°38' E 009°32'1212.1
2017-Jan-10 05:33N 53°33' E 009°51'3 2.7
2017-Jan-10 04:33N 53°32' E 009°55'0 0.0
2017-Jan-10 03:33N 53°32' E 009°55'0 0.0
2017-Jan-10 02:33N 53°32' E 009°55'0 0.0
2017-Jan-10 01:33N 53°32' E 009°55'0 0.0
2017-Jan-10 00:33N 53°32' E 009°55'0 0.0
2017-Jan-09 23:33N 53°32' E 009°55'0 0.0
2017-Jan-09 22:33N 53°32' E 009°55'1 1.4
2017-Jan-09 21:33N 53°31' E 009°56'1 1.0
2017-Jan-09 20:33N 53°30' E 009°56'0 0.0
2017-Jan-09 19:33N 53°30' E 009°56'0 0.0
2017-Jan-09 18:33N 53°30' E 009°56'0 0.0
2017-Jan-09 17:33N 53°30' E 009°56'0 0.0
2017-Jan-09 16:33N 53°30' E 009°56'0 0.0
2017-Jan-09 15:33N 53°30' E 009°56'0 0.0
2017-Jan-09 14:33N 53°30' E 009°56'0 0.0
2017-Jan-09 13:33N 53°30' E 009°56'0 0.0
2017-Jan-09 12:33N 53°30' E 009°56'0 0.0
2017-Jan-09 11:34N 53°30' E 009°56'5 5.0
2017-Jan-09 10:33N 53°33' E 009°49'1110.8
2017-Jan-09 09:33N 53°37' E 009°32'1110.8
2017-Jan-09 08:33N 53°47' E 009°23'1212.1
2017-Jan-09 07:33N 53°52' E 009°05'1313.1
2017-Jan-09 06:33N 53°52' E 008°43'1413.5
2017-Jan-09 05:33N 53°59' E 008°23'1111.1
2017-Jan-09 04:33N 54°02' E 008°05'3 2.7
2017-Jan-09 03:30N 54°03' E 008°10'0 0.2
2017-Jan-09 02:33N 54°03' E 008°09'8 8.1
2017-Jan-09 01:33N 54°03' E 007°56'1010.1
2017-Jan-09 00:32N 54°08' E 007°40'29 9.4
2017-Jan-08 21:27N 54°32' E 007°14'9 9.7
2017-Jan-08 20:33N 54°40' E 007°07'10 9.9
2017-Jan-08 19:33N 54°49' E 006°60'1010.3
2017-Jan-08 18:33N 54°58' E 006°52'1110.6
2017-Jan-08 17:33N 55°08' E 006°46'1110.9
2017-Jan-08 16:34N 55°19' E 006°41'1110.9
2017-Jan-08 15:34N 55°29' E 006°36'16812.0
2017-Jan-08 01:33N 58°12' E 005°18'1412.1
2017-Jan-08 00:26N 58°23' E 005°02'1112.4
2017-Jan-07 23:31N 58°32' E 004°49'1212.8
2017-Jan-07 22:33N 58°41' E 004°34'  

Dump ship's entire track history